• Join FlightAware (Why Join?)
  • Login
  • US Flag 
05:27PM EST


 

Airport Tracker/Info


-or-


 

Live Flight TrackerFlight Track Log ✈ N2102C ✈ 07-Sep-2013 ✈ KDNV - 05C

Flight Track Log - Related Links

Times and Time Zones

All times are in EDT time to prevent confusion due to time zone crossing. See the N2102C flight status page for this flight to view local times or setup timezone preferences in your user account.

Time Position Orientation Groundspeed Altitude Reporting Facility
EDT Latitude Longitude Course Direction KTS MPH feet Rate Location/Type
01:13PM 40.4411 -87.4936 North 119 137 3,500  Level Chicago Center
01:14PM 40.4772 -87.4908 North 113 130 3,100 -300 Descending Chicago Center
01:15PM 40.5092 -87.4850 North 116 133 3,000  Descending Chicago Center
01:16PM 40.5406 -87.4742 15° North 116 133 3,100 60 Climbing Chicago Center
01:18PM 40.6044 -87.4475 18° North 111 128 3,200  Climbing Chicago Center
01:19PM 40.6356 -87.4383 13° North 112 129 3,100 -120 Descending Chicago Center
01:20PM 40.6683 -87.4347 North 116 133 3,000 -60 Descending Chicago Center
01:21PM 40.7008 -87.4328 North 118 136 3,000  Level Chicago Center
01:22PM 40.7317 -87.4314 North 115 132 3,100  Climbing Chicago Center
01:23PM 40.7717 -87.4292 North 117 135 3,000 -60 Descending Chicago Center
01:24PM 40.8039 -87.4253 North 117 135 3,000  Level Chicago Center
01:25PM 40.8378 -87.4222 North 119 137 3,000  Level Chicago Center
01:26PM 40.8711 -87.4181 North 120 138 3,000  Level Chicago Center
01:27PM 40.9047 -87.4150 North 121 139 3,100  Climbing Chicago Center
01:28PM 40.9372 -87.4139 North 120 138 3,100  Level Chicago Center
01:29PM 40.9761 -87.4136 360° North 119 137 3,100 -60 Level Chicago Center
01:30PM 41.0086 -87.4081 North 117 135 3,000 -120 Descending Chicago Center
01:31PM 41.0406 -87.4058 North 117 135 2,900 -60 Descending Chicago Center
01:32PM 41.0722 -87.4061 360° North 116 133 2,900  Level Chicago Center
01:33PM 41.1031 -87.4056 North 114 131 3,000  Climbing Chicago Center
01:34PM 41.1400 -87.4042 North 112 129 3,000 -60 Level Chicago Center
01:35PM 41.1719 -87.4003 North 113 130 2,900 -60 Descending Chicago Center
01:36PM 41.2039 -87.3947 North 115 132 2,900  Level Chicago Center
01:37PM 41.2356 -87.3886 North 115 132 2,900  Level Chicago Center
01:38PM 41.2669 -87.3847 North 115 132 3,000 60 Climbing Chicago Center
01:39PM 41.3047 -87.3814 North 115 132 3,100 60 Climbing Chicago Center